sensor_id;sensor_type;location;lat;lon;timestamp;temperature;humidity
67868;SHT31;54672;46.096;14.470;2022-07-10T00:01:15;16.42;79.04
67868;SHT31;54672;46.096;14.470;2022-07-10T00:03:40;16.42;79.27
67868;SHT31;54672;46.096;14.470;2022-07-10T00:06:06;16.31;79.88
67868;SHT31;54672;46.096;14.470;2022-07-10T00:08:32;16.20;79.54
67868;SHT31;54672;46.096;14.470;2022-07-10T00:10:57;16.18;79.77
67868;SHT31;54672;46.096;14.470;2022-07-10T00:13:23;16.13;79.74
67868;SHT31;54672;46.096;14.470;2022-07-10T00:15:48;16.14;79.71
67868;SHT31;54672;46.096;14.470;2022-07-10T00:18:14;16.18;79.38
67868;SHT31;54672;46.096;14.470;2022-07-10T00:20:39;16.11;79.33
67868;SHT31;54672;46.096;14.470;2022-07-10T00:23:05;16.04;78.92
67868;SHT31;54672;46.096;14.470;2022-07-10T00:25:30;16.00;78.73
67868;SHT31;54672;46.096;14.470;2022-07-10T00:27:56;16.05;78.84
67868;SHT31;54672;46.096;14.470;2022-07-10T00:30:21;16.03;78.76
67868;SHT31;54672;46.096;14.470;2022-07-10T00:32:47;16.11;79.12
67868;SHT31;54672;46.096;14.470;2022-07-10T00:35:12;16.28;78.57
67868;SHT31;54672;46.096;14.470;2022-07-10T00:37:37;16.34;78.63
67868;SHT31;54672;46.096;14.470;2022-07-10T00:40:04;16.36;78.66
67868;SHT31;54672;46.096;14.470;2022-07-10T00:42:29;16.36;79.14
67868;SHT31;54672;46.096;14.470;2022-07-10T00:44:55;16.35;79.27
67868;SHT31;54672;46.096;14.470;2022-07-10T00:47:20;16.31;79.24
67868;SHT31;54672;46.096;14.470;2022-07-10T00:49:46;16.24;78.79
67868;SHT31;54672;46.096;14.470;2022-07-10T00:52:16;16.22;78.93
67868;SHT31;54672;46.096;14.470;2022-07-10T00:54:44;16.21;78.02
67868;SHT31;54672;46.096;14.470;2022-07-10T00:57:12;16.14;78.07
67868;SHT31;54672;46.096;14.470;2022-07-10T00:59:38;16.11;78.23
67868;SHT31;54672;46.096;14.470;2022-07-10T01:02:04;16.11;78.13
67868;SHT31;54672;46.096;14.470;2022-07-10T01:04:30;16.11;78.04
67868;SHT31;54672;46.096;14.470;2022-07-10T01:06:56;16.18;78.07
67868;SHT31;54672;46.096;14.470;2022-07-10T01:09:21;16.32;78.38
67868;SHT31;54672;46.096;14.470;2022-07-10T01:11:47;16.40;78.19
67868;SHT31;54672;46.096;14.470;2022-07-10T01:14:17;16.36;79.09
67868;SHT31;54672;46.096;14.470;2022-07-10T01:16:43;16.35;79.22
67868;SHT31;54672;46.096;14.470;2022-07-10T01:19:08;16.35;79.07
67868;SHT31;54672;46.096;14.470;2022-07-10T01:21:36;16.36;80.09
67868;SHT31;54672;46.096;14.470;2022-07-10T01:24:06;16.41;80.07
67868;SHT31;54672;46.096;14.470;2022-07-10T01:26:33;16.41;80.23
67868;SHT31;54672;46.096;14.470;2022-07-10T01:29:02;16.42;80.02
67868;SHT31;54672;46.096;14.470;2022-07-10T01:31:28;16.45;80.31
67868;SHT31;54672;46.096;14.470;2022-07-10T01:33:54;16.34;80.44
67868;SHT31;54672;46.096;14.470;2022-07-10T01:36:23;16.25;80.36
67868;SHT31;54672;46.096;14.470;2022-07-10T01:38:52;16.05;79.82
67868;SHT31;54672;46.096;14.470;2022-07-10T01:41:18;15.97;80.48
67868;SHT31;54672;46.096;14.470;2022-07-10T01:43:43;15.87;81.36
67868;SHT31;54672;46.096;14.470;2022-07-10T01:46:10;15.80;81.89
67868;SHT31;54672;46.096;14.470;2022-07-10T01:48:37;15.82;81.95
67868;SHT31;54672;46.096;14.470;2022-07-10T01:51:03;15.77;81.60
67868;SHT31;54672;46.096;14.470;2022-07-10T01:53:29;15.83;81.50
67868;SHT31;54672;46.096;14.470;2022-07-10T01:55:55;15.90;79.95
67868;SHT31;54672;46.096;14.470;2022-07-10T01:58:20;15.97;79.67
67868;SHT31;54672;46.096;14.470;2022-07-10T02:00:46;16.01;79.45
67868;SHT31;54672;46.096;14.470;2022-07-10T02:03:11;16.04;79.38
67868;SHT31;54672;46.096;14.470;2022-07-10T02:05:55;16.05;79.23
67868;SHT31;54672;46.096;14.470;2022-07-10T02:08:20;16.13;79.35
67868;SHT31;54672;46.096;14.470;2022-07-10T02:10:46;16.20;79.45
67868;SHT31;54672;46.096;14.470;2022-07-10T02:13:11;16.28;79.85
67868;SHT31;54672;46.096;14.470;2022-07-10T02:15:42;16.28;79.75
67868;SHT31;54672;46.096;14.470;2022-07-10T02:18:08;16.29;79.46
67868;SHT31;54672;46.096;14.470;2022-07-10T02:20:33;16.29;79.37
67868;SHT31;54672;46.096;14.470;2022-07-10T02:23:00;16.34;78.65
67868;SHT31;54672;46.096;14.470;2022-07-10T02:25:26;16.36;77.91
67868;SHT31;54672;46.096;14.470;2022-07-10T02:27:51;16.38;77.73
67868;SHT31;54672;46.096;14.470;2022-07-10T02:30:17;16.34;77.63
67868;SHT31;54672;46.096;14.470;2022-07-10T02:32:42;16.31;77.95
67868;SHT31;54672;46.096;14.470;2022-07-10T02:35:08;16.28;78.07
67868;SHT31;54672;46.096;14.470;2022-07-10T02:37:33;16.25;78.14
67868;SHT31;54672;46.096;14.470;2022-07-10T02:39:59;16.29;78.10
67868;SHT31;54672;46.096;14.470;2022-07-10T02:42:24;16.31;78.17
67868;SHT31;54672;46.096;14.470;2022-07-10T02:44:49;16.31;77.94
67868;SHT31;54672;46.096;14.470;2022-07-10T02:47:15;16.35;78.77
67868;SHT31;54672;46.096;14.470;2022-07-10T02:49:40;16.35;79.60
67868;SHT31;54672;46.096;14.470;2022-07-10T02:52:06;16.32;79.92
67868;SHT31;54672;46.096;14.470;2022-07-10T02:54:31;16.28;80.32
67868;SHT31;54672;46.096;14.470;2022-07-10T02:56:56;16.20;80.61
67868;SHT31;54672;46.096;14.470;2022-07-10T02:59:22;16.08;81.25
67868;SHT31;54672;46.096;14.470;2022-07-10T03:01:47;15.97;81.91
67868;SHT31;54672;46.096;14.470;2022-07-10T03:04:13;15.97;82.29
67868;SHT31;54672;46.096;14.470;2022-07-10T03:06:38;15.90;82.53
67868;SHT31;54672;46.096;14.470;2022-07-10T03:09:03;15.76;82.78
67868;SHT31;54672;46.096;14.470;2022-07-10T03:11:29;15.59;83.31
67868;SHT31;54672;46.096;14.470;2022-07-10T03:13:54;15.46;84.18
67868;SHT31;54672;46.096;14.470;2022-07-10T03:16:19;15.38;84.70
67868;SHT31;54672;46.096;14.470;2022-07-10T03:18:45;15.33;84.23
67868;SHT31;54672;46.096;14.470;2022-07-10T03:21:11;15.36;84.28
67868;SHT31;54672;46.096;14.470;2022-07-10T03:23:36;15.36;84.37
67868;SHT31;54672;46.096;14.470;2022-07-10T03:26:04;15.36;84.06
67868;SHT31;54672;46.096;14.470;2022-07-10T03:28:30;15.40;83.27
67868;SHT31;54672;46.096;14.470;2022-07-10T03:30:56;15.45;83.43
67868;SHT31;54672;46.096;14.470;2022-07-10T03:33:21;15.49;83.52
67868;SHT31;54672;46.096;14.470;2022-07-10T03:35:47;15.56;83.20
67868;SHT31;54672;46.096;14.470;2022-07-10T03:38:12;15.66;82.56
67868;SHT31;54672;46.096;14.470;2022-07-10T03:40:38;15.73;81.57
67868;SHT31;54672;46.096;14.470;2022-07-10T03:43:03;15.79;81.28
67868;SHT31;54672;46.096;14.470;2022-07-10T03:45:29;15.84;81.19
67868;SHT31;54672;46.096;14.470;2022-07-10T03:47:54;15.90;80.59
67868;SHT31;54672;46.096;14.470;2022-07-10T03:50:19;15.94;80.41
67868;SHT31;54672;46.096;14.470;2022-07-10T03:52:45;15.98;80.05
67868;SHT31;54672;46.096;14.470;2022-07-10T03:55:11;16.17;79.31
67868;SHT31;54672;46.096;14.470;2022-07-10T03:57:37;16.11;79.01
67868;SHT31;54672;46.096;14.470;2022-07-10T04:00:23;16.14;79.27
67868;SHT31;54672;46.096;14.470;2022-07-10T04:05:22;16.21;78.82
67868;SHT31;54672;46.096;14.470;2022-07-10T04:07:48;16.26;78.91
67868;SHT31;54672;46.096;14.470;2022-07-10T04:10:13;16.31;78.95
67868;SHT31;54672;46.096;14.470;2022-07-10T04:12:39;16.41;78.82
67868;SHT31;54672;46.096;14.470;2022-07-10T04:15:04;16.40;78.59
67868;SHT31;54672;46.096;14.470;2022-07-10T04:17:30;16.45;78.59
67868;SHT31;54672;46.096;14.470;2022-07-10T04:20:00;16.42;78.75
67868;SHT31;54672;46.096;14.470;2022-07-10T04:22:27;16.48;78.36
67868;SHT31;54672;46.096;14.470;2022-07-10T04:24:53;16.52;78.45
67868;SHT31;54672;46.096;14.470;2022-07-10T04:27:19;16.54;78.95
67868;SHT31;54672;46.096;14.470;2022-07-10T04:29:45;16.61;79.01
67868;SHT31;54672;46.096;14.470;2022-07-10T04:32:10;16.65;78.78
67868;SHT31;54672;46.096;14.470;2022-07-10T04:34:36;16.69;78.50
67868;SHT31;54672;46.096;14.470;2022-07-10T04:37:02;16.45;80.76
67868;SHT31;54672;46.096;14.470;2022-07-10T04:39:27;16.03;82.39
67868;SHT31;54672;46.096;14.470;2022-07-10T04:41:53;15.84;83.95
67868;SHT31;54672;46.096;14.470;2022-07-10T04:44:18;15.71;84.34
67868;SHT31;54672;46.096;14.470;2022-07-10T04:46:44;15.66;84.56
67868;SHT31;54672;46.096;14.470;2022-07-10T04:49:09;15.80;84.21
67868;SHT31;54672;46.096;14.470;2022-07-10T04:51:35;15.93;83.50
67868;SHT31;54672;46.096;14.470;2022-07-10T04:54:00;16.10;81.98
67868;SHT31;54672;46.096;14.470;2022-07-10T04:56:26;16.15;81.29
67868;SHT31;54672;46.096;14.470;2022-07-10T04:58:51;16.22;80.82
67868;SHT31;54672;46.096;14.470;2022-07-10T05:01:17;16.32;80.56
67868;SHT31;54672;46.096;14.470;2022-07-10T05:03:42;16.41;79.75
67868;SHT31;54672;46.096;14.470;2022-07-10T05:06:08;16.73;78.52
67868;SHT31;54672;46.096;14.470;2022-07-10T05:08:33;17.09;77.44
67868;SHT31;54672;46.096;14.470;2022-07-10T05:10:59;17.30;76.97
67868;SHT31;54672;46.096;14.470;2022-07-10T05:13:24;17.43;75.62
67868;SHT31;54672;46.096;14.470;2022-07-10T05:15:49;18.59;72.17
67868;SHT31;54672;46.096;14.470;2022-07-10T05:18:15;19.08;71.48
67868;SHT31;54672;46.096;14.470;2022-07-10T05:20:41;21.13;62.91
67868;SHT31;54672;46.096;14.470;2022-07-10T05:23:09;22.45;60.02
67868;SHT31;54672;46.096;14.470;2022-07-10T05:25:35;23.76;55.50
67868;SHT31;54672;46.096;14.470;2022-07-10T05:28:03;22.99;56.94
67868;SHT31;54672;46.096;14.470;2022-07-10T05:30:29;20.86;62.04
67868;SHT31;54672;46.096;14.470;2022-07-10T05:32:54;21.04;62.36
67868;SHT31;54672;46.096;14.470;2022-07-10T05:35:20;21.13;61.31
67868;SHT31;54672;46.096;14.470;2022-07-10T05:37:45;19.92;63.89
67868;SHT31;54672;46.096;14.470;2022-07-10T05:40:11;19.07;67.27
67868;SHT31;54672;46.096;14.470;2022-07-10T05:42:37;18.73;68.98
67868;SHT31;54672;46.096;14.470;2022-07-10T05:45:03;18.53;69.78
67868;SHT31;54672;46.096;14.470;2022-07-10T05:47:31;18.67;69.41
67868;SHT31;54672;46.096;14.470;2022-07-10T05:49:56;18.50;70.65
67868;SHT31;54672;46.096;14.470;2022-07-10T05:52:21;18.64;70.20
67868;SHT31;54672;46.096;14.470;2022-07-10T05:54:47;18.39;71.43
67868;SHT31;54672;46.096;14.470;2022-07-10T05:57:12;18.16;71.62
67868;SHT31;54672;46.096;14.470;2022-07-10T05:59:38;18.01;73.09
67868;SHT31;54672;46.096;14.470;2022-07-10T06:02:03;17.85;72.66
67868;SHT31;54672;46.096;14.470;2022-07-10T06:04:29;17.58;73.32
67868;SHT31;54672;46.096;14.470;2022-07-10T06:06:54;17.58;73.51
67868;SHT31;54672;46.096;14.470;2022-07-10T06:09:20;17.57;73.32
67868;SHT31;54672;46.096;14.470;2022-07-10T06:11:45;17.38;74.14
67868;SHT31;54672;46.096;14.470;2022-07-10T06:14:13;17.40;74.21
67868;SHT31;54672;46.096;14.470;2022-07-10T06:16:39;17.60;73.88
67868;SHT31;54672;46.096;14.470;2022-07-10T06:19:04;17.57;73.48
67868;SHT31;54672;46.096;14.470;2022-07-10T06:21:30;17.61;72.90
67868;SHT31;54672;46.096;14.470;2022-07-10T06:23:55;17.70;73.04
67868;SHT31;54672;46.096;14.470;2022-07-10T06:26:20;17.82;71.98
67868;SHT31;54672;46.096;14.470;2022-07-10T06:28:46;18.23;70.93
67868;SHT31;54672;46.096;14.470;2022-07-10T06:31:11;19.14;67.27
67868;SHT31;54672;46.096;14.470;2022-07-10T06:33:37;19.26;66.10
67868;SHT31;54672;46.096;14.470;2022-07-10T06:36:03;19.01;67.16
67868;SHT31;54672;46.096;14.470;2022-07-10T06:38:29;18.29;69.19
67868;SHT31;54672;46.096;14.470;2022-07-10T06:40:54;18.63;68.56
67868;SHT31;54672;46.096;14.470;2022-07-10T06:43:19;18.46;68.91
67868;SHT31;54672;46.096;14.470;2022-07-10T06:45:45;18.43;69.05
67868;SHT31;54672;46.096;14.470;2022-07-10T06:48:11;18.33;69.40
67868;SHT31;54672;46.096;14.470;2022-07-10T06:50:36;18.19;70.09
67868;SHT31;54672;46.096;14.470;2022-07-10T06:53:03;18.19;70.00
67868;SHT31;54672;46.096;14.470;2022-07-10T06:55:29;18.03;69.75
67868;SHT31;54672;46.096;14.470;2022-07-10T06:57:56;17.93;69.33
67868;SHT31;54672;46.096;14.470;2022-07-10T07:00:22;18.03;69.77
67868;SHT31;54672;46.096;14.470;2022-07-10T07:02:47;18.08;69.05
67868;SHT31;54672;46.096;14.470;2022-07-10T07:05:13;18.06;69.52
67868;SHT31;54672;46.096;14.470;2022-07-10T07:07:39;18.17;69.63
67868;SHT31;54672;46.096;14.470;2022-07-10T07:10:07;18.23;69.25
67868;SHT31;54672;46.096;14.470;2022-07-10T07:12:33;18.19;68.76
67868;SHT31;54672;46.096;14.470;2022-07-10T07:14:58;18.03;68.80
67868;SHT31;54672;46.096;14.470;2022-07-10T07:17:24;18.08;68.87
67868;SHT31;54672;46.096;14.470;2022-07-10T07:19:58;18.17;68.70
67868;SHT31;54672;46.096;14.470;2022-07-10T07:22:42;18.09;69.79
67868;SHT31;54672;46.096;14.470;2022-07-10T07:25:26;18.29;69.00
67868;SHT31;54672;46.096;14.470;2022-07-10T07:27:51;18.19;68.98
67868;SHT31;54672;46.096;14.470;2022-07-10T07:30:16;18.16;68.75
67868;SHT31;54672;46.096;14.470;2022-07-10T07:32:43;18.08;69.33
67868;SHT31;54672;46.096;14.470;2022-07-10T07:35:11;18.28;68.97
67868;SHT31;54672;46.096;14.470;2022-07-10T07:37:48;18.29;69.53
67868;SHT31;54672;46.096;14.470;2022-07-10T07:40:19;18.28;68.73
67868;SHT31;54672;46.096;14.470;2022-07-10T07:42:46;18.32;69.11
67868;SHT31;54672;46.096;14.470;2022-07-10T07:45:12;18.46;69.04
67868;SHT31;54672;46.096;14.470;2022-07-10T07:47:45;18.78;68.43
67868;SHT31;54672;46.096;14.470;2022-07-10T07:50:19;18.95;67.76
67868;SHT31;54672;46.096;14.470;2022-07-10T07:52:45;18.93;67.06
67868;SHT31;54672;46.096;14.470;2022-07-10T07:55:12;19.12;65.64
67868;SHT31;54672;46.096;14.470;2022-07-10T07:57:39;19.15;66.33
67868;SHT31;54672;46.096;14.470;2022-07-10T08:00:06;19.19;65.15
67868;SHT31;54672;46.096;14.470;2022-07-10T08:02:32;19.26;65.69
67868;SHT31;54672;46.096;14.470;2022-07-10T08:04:58;19.35;64.31
67868;SHT31;54672;46.096;14.470;2022-07-10T08:07:35;19.53;63.80
67868;SHT31;54672;46.096;14.470;2022-07-10T08:10:03;19.59;62.93
67868;SHT31;54672;46.096;14.470;2022-07-10T08:12:28;19.94;62.24
67868;SHT31;54672;46.096;14.470;2022-07-10T08:14:54;20.07;61.71
67868;SHT31;54672;46.096;14.470;2022-07-10T08:17:20;20.01;61.68
67868;SHT31;54672;46.096;14.470;2022-07-10T08:19:46;19.90;61.81
67868;SHT31;54672;46.096;14.470;2022-07-10T08:22:12;19.96;62.24
67868;SHT31;54672;46.096;14.470;2022-07-10T08:24:37;20.54;61.23
67868;SHT31;54672;46.096;14.470;2022-07-10T08:27:04;20.96;59.15
67868;SHT31;54672;46.096;14.470;2022-07-10T08:29:31;21.03;57.96
67868;SHT31;54672;46.096;14.470;2022-07-10T08:31:56;20.69;59.00
67868;SHT31;54672;46.096;14.470;2022-07-10T08:34:22;20.64;59.57
67868;SHT31;54672;46.096;14.470;2022-07-10T08:36:47;20.40;60.42
67868;SHT31;54672;46.096;14.470;2022-07-10T08:39:13;20.16;60.45
67868;SHT31;54672;46.096;14.470;2022-07-10T08:41:42;20.11;60.87
67868;SHT31;54672;46.096;14.470;2022-07-10T08:44:08;19.90;61.18
67868;SHT31;54672;46.096;14.470;2022-07-10T08:46:34;19.94;61.81
67868;SHT31;54672;46.096;14.470;2022-07-10T08:49:05;20.28;60.92
67868;SHT31;54672;46.096;14.470;2022-07-10T08:51:41;19.62;62.70
67868;SHT31;54672;46.096;14.470;2022-07-10T08:54:07;19.43;63.99
67868;SHT31;54672;46.096;14.470;2022-07-10T08:56:33;19.51;64.72
67868;SHT31;54672;46.096;14.470;2022-07-10T08:59:00;19.53;65.01
67868;SHT31;54672;46.096;14.470;2022-07-10T09:01:27;19.24;66.28
67868;SHT31;54672;46.096;14.470;2022-07-10T09:03:52;19.10;67.19
67868;SHT31;54672;46.096;14.470;2022-07-10T09:06:18;18.90;68.23
67868;SHT31;54672;46.096;14.470;2022-07-10T09:11:25;18.36;73.13
67868;SHT31;54672;46.096;14.470;2022-07-10T09:13:56;18.06;75.09
67868;SHT31;54672;46.096;14.470;2022-07-10T09:16:32;17.88;75.70
67868;SHT31;54672;46.096;14.470;2022-07-10T09:22:05;17.93;80.87
67868;SHT31;54672;46.096;14.470;2022-07-10T09:24:42;17.81;79.97
67868;SHT31;54672;46.096;14.470;2022-07-10T09:27:08;17.78;81.24
67868;SHT31;54672;46.096;14.470;2022-07-10T09:29:51;17.75;80.35
67868;SHT31;54672;46.096;14.470;2022-07-10T09:32:20;17.71;81.84
67868;SHT31;54672;46.096;14.470;2022-07-10T09:34:46;17.70;82.93
67868;SHT31;54672;46.096;14.470;2022-07-10T09:40:00;17.71;83.06
67868;SHT31;54672;46.096;14.470;2022-07-10T09:42:34;17.77;83.82
67868;SHT31;54672;46.096;14.470;2022-07-10T09:45:21;17.81;83.51
67868;SHT31;54672;46.096;14.470;2022-07-10T09:47:59;17.93;81.20
67868;SHT31;54672;46.096;14.470;2022-07-10T09:50:37;18.12;80.15
67868;SHT31;54672;46.096;14.470;2022-07-10T09:53:04;18.40;77.38
67868;SHT31;54672;46.096;14.470;2022-07-10T09:55:34;18.33;77.49
67868;SHT31;54672;46.096;14.470;2022-07-10T09:58:05;18.06;76.78
67868;SHT31;54672;46.096;14.470;2022-07-10T10:00:31;18.34;76.02
67868;SHT31;54672;46.096;14.470;2022-07-10T10:02:59;18.88;74.40
67868;SHT31;54672;46.096;14.470;2022-07-10T10:05:35;19.58;71.80
67868;SHT31;54672;46.096;14.470;2022-07-10T10:10:40;20.38;69.34
67868;SHT31;54672;46.096;14.470;2022-07-10T10:13:10;21.06;64.82
67868;SHT31;54672;46.096;14.470;2022-07-10T10:15:35;21.49;66.69
67868;SHT31;54672;46.096;14.470;2022-07-10T10:18:02;21.16;64.59
67868;SHT31;54672;46.096;14.470;2022-07-10T10:20:28;21.06;64.08
67868;SHT31;54672;46.096;14.470;2022-07-10T10:23:13;20.85;62.92
67868;SHT31;54672;46.096;14.470;2022-07-10T10:25:40;20.92;65.36
67868;SHT31;54672;46.096;14.470;2022-07-10T10:28:10;20.96;64.08
67868;SHT31;54672;46.096;14.470;2022-07-10T10:30:42;20.86;64.22
67868;SHT31;54672;46.096;14.470;2022-07-10T10:36:08;21.27;67.10
67868;SHT31;54672;46.096;14.470;2022-07-10T10:41:30;21.36;64.44
67868;SHT31;54672;46.096;14.470;2022-07-10T10:49:16;21.14;65.77
67868;SHT31;54672;46.096;14.470;2022-07-10T10:52:03;21.13;65.04
67868;SHT31;54672;46.096;14.470;2022-07-10T10:54:31;21.41;65.47
67868;SHT31;54672;46.096;14.470;2022-07-10T10:57:16;21.50;63.62
67868;SHT31;54672;46.096;14.470;2022-07-10T10:59:55;21.73;65.28
67868;SHT31;54672;46.096;14.470;2022-07-10T11:04:49;21.92;63.75
67868;SHT31;54672;46.096;14.470;2022-07-10T11:10:31;21.26;63.87
67868;SHT31;54672;46.096;14.470;2022-07-10T11:13:13;21.46;63.53
67868;SHT31;54672;46.096;14.470;2022-07-10T11:15:43;21.91;62.47
67868;SHT31;54672;46.096;14.470;2022-07-10T11:18:17;22.13;60.95
67868;SHT31;54672;46.096;14.470;2022-07-10T11:20:50;22.11;60.28
67868;SHT31;54672;46.096;14.470;2022-07-10T11:23:43;22.02;62.46
67868;SHT31;54672;46.096;14.470;2022-07-10T11:26:30;22.40;61.72
67868;SHT31;54672;46.096;14.470;2022-07-10T11:29:04;22.53;59.29
67868;SHT31;54672;46.096;14.470;2022-07-10T11:31:33;22.60;59.54
67868;SHT31;54672;46.096;14.470;2022-07-10T11:34:03;22.83;57.18
67868;SHT31;54672;46.096;14.470;2022-07-10T11:36:29;22.99;58.19
67868;SHT31;54672;46.096;14.470;2022-07-10T11:39:07;23.11;55.81
67868;SHT31;54672;46.096;14.470;2022-07-10T11:41:41;23.22;56.15
67868;SHT31;54672;46.096;14.470;2022-07-10T11:44:13;23.44;57.92
67868;SHT31;54672;46.096;14.470;2022-07-10T11:46:39;23.14;59.73
67868;SHT31;54672;46.096;14.470;2022-07-10T11:49:05;23.35;56.19
67868;SHT31;54672;46.096;14.470;2022-07-10T11:51:33;23.25;58.58
67868;SHT31;54672;46.096;14.470;2022-07-10T11:54:05;23.07;58.20
67868;SHT31;54672;46.096;14.470;2022-07-10T11:56:33;23.28;57.19
67868;SHT31;54672;46.096;14.470;2022-07-10T11:59:00;23.21;56.72
67868;SHT31;54672;46.096;14.470;2022-07-10T12:01:31;23.24;57.55
67868;SHT31;54672;46.096;14.470;2022-07-10T12:04:04;22.90;57.17
67868;SHT31;54672;46.096;14.470;2022-07-10T12:06:31;23.12;57.22
67868;SHT31;54672;46.096;14.470;2022-07-10T12:09:05;23.38;56.25
67868;SHT31;54672;46.096;14.470;2022-07-10T12:11:31;23.63;54.86
67868;SHT31;54672;46.096;14.470;2022-07-10T12:14:20;23.45;53.93
67868;SHT31;54672;46.096;14.470;2022-07-10T12:16:51;23.31;54.39
67868;SHT31;54672;46.096;14.470;2022-07-10T12:19:20;23.68;53.51
67868;SHT31;54672;46.096;14.470;2022-07-10T12:21:47;23.89;53.91
67868;SHT31;54672;46.096;14.470;2022-07-10T12:24:15;23.90;52.70
67868;SHT31;54672;46.096;14.470;2022-07-10T12:26:42;23.92;52.50
67868;SHT31;54672;46.096;14.470;2022-07-10T12:29:22;23.98;52.83
67868;SHT31;54672;46.096;14.470;2022-07-10T12:31:49;24.09;52.73
67868;SHT31;54672;46.096;14.470;2022-07-10T12:34:15;24.39;51.63
67868;SHT31;54672;46.096;14.470;2022-07-10T12:36:46;24.54;51.14
67868;SHT31;54672;46.096;14.470;2022-07-10T12:39:17;24.37;52.11
67868;SHT31;54672;46.096;14.470;2022-07-10T12:42:05;24.08;53.76
67868;SHT31;54672;46.096;14.470;2022-07-10T12:44:40;24.24;52.31
67868;SHT31;54672;46.096;14.470;2022-07-10T12:47:16;24.33;51.56
67868;SHT31;54672;46.096;14.470;2022-07-10T12:52:35;24.94;50.33
67868;SHT31;54672;46.096;14.470;2022-07-10T12:55:20;24.41;50.85
67868;SHT31;54672;46.096;14.470;2022-07-10T12:57:55;24.57;51.14
67868;SHT31;54672;46.096;14.470;2022-07-10T13:00:26;24.68;50.27
67868;SHT31;54672;46.096;14.470;2022-07-10T13:03:04;25.23;49.15
67868;SHT31;54672;46.096;14.470;2022-07-10T13:10:35;25.38;48.24
67868;SHT31;54672;46.096;14.470;2022-07-10T13:13:02;25.66;47.39
67868;SHT31;54672;46.096;14.470;2022-07-10T13:15:28;25.59;47.60
67868;SHT31;54672;46.096;14.470;2022-07-10T13:17:55;25.38;47.40
67868;SHT31;54672;46.096;14.470;2022-07-10T13:20:20;25.20;47.21
67868;SHT31;54672;46.096;14.470;2022-07-10T13:22:46;25.11;48.48
67868;SHT31;54672;46.096;14.470;2022-07-10T13:25:11;25.02;48.87
67868;SHT31;54672;46.096;14.470;2022-07-10T13:27:37;24.75;49.98
67868;SHT31;54672;46.096;14.470;2022-07-10T13:30:03;24.82;49.56
67868;SHT31;54672;46.096;14.470;2022-07-10T13:32:29;25.28;47.86
67868;SHT31;54672;46.096;14.470;2022-07-10T13:34:54;24.96;47.95
67868;SHT31;54672;46.096;14.470;2022-07-10T13:37:20;25.19;47.88
67868;SHT31;54672;46.096;14.470;2022-07-10T13:39:45;25.25;47.53
67868;SHT31;54672;46.096;14.470;2022-07-10T13:42:11;25.28;48.31
67868;SHT31;54672;46.096;14.470;2022-07-10T13:44:36;25.36;47.05
67868;SHT31;54672;46.096;14.470;2022-07-10T13:47:02;25.35;47.06
67868;SHT31;54672;46.096;14.470;2022-07-10T13:49:27;24.91;48.53
67868;SHT31;54672;46.096;14.470;2022-07-10T13:51:52;24.98;48.82
67868;SHT31;54672;46.096;14.470;2022-07-10T13:54:18;25.39;48.03
67868;SHT31;54672;46.096;14.470;2022-07-10T13:56:43;25.66;46.74
67868;SHT31;54672;46.096;14.470;2022-07-10T13:59:09;25.74;47.13
67868;SHT31;54672;46.096;14.470;2022-07-10T14:01:34;25.93;45.75
67868;SHT31;54672;46.096;14.470;2022-07-10T14:04:00;26.00;45.62
67868;SHT31;54672;46.096;14.470;2022-07-10T14:06:26;25.65;46.16
67868;SHT31;54672;46.096;14.470;2022-07-10T14:08:51;25.45;46.18
67868;SHT31;54672;46.096;14.470;2022-07-10T14:11:17;25.53;45.78
67868;SHT31;54672;46.096;14.470;2022-07-10T14:13:43;25.53;45.61
67868;SHT31;54672;46.096;14.470;2022-07-10T14:16:08;25.46;45.91
67868;SHT31;54672;46.096;14.470;2022-07-10T14:18:34;25.39;44.92
67868;SHT31;54672;46.096;14.470;2022-07-10T14:21:07;25.30;45.56
67868;SHT31;54672;46.096;14.470;2022-07-10T14:23:35;25.25;45.37
67868;SHT31;54672;46.096;14.470;2022-07-10T14:26:00;25.26;45.13
67868;SHT31;54672;46.096;14.470;2022-07-10T14:28:26;25.30;45.46
67868;SHT31;54672;46.096;14.470;2022-07-10T14:30:52;25.29;48.04
67868;SHT31;54672;46.096;14.470;2022-07-10T14:33:18;25.39;50.81
67868;SHT31;54672;46.096;14.470;2022-07-10T14:35:43;25.47;50.33
67868;SHT31;54672;46.096;14.470;2022-07-10T14:38:09;25.53;50.47
67868;SHT31;54672;46.096;14.470;2022-07-10T14:40:34;25.46;50.82
67868;SHT31;54672;46.096;14.470;2022-07-10T14:42:59;25.29;51.32
67868;SHT31;54672;46.096;14.470;2022-07-10T14:45:25;25.14;51.02
67868;SHT31;54672;46.096;14.470;2022-07-10T14:47:51;24.88;53.53
67868;SHT31;54672;46.096;14.470;2022-07-10T14:50:16;24.92;54.19
67868;SHT31;54672;46.096;14.470;2022-07-10T14:52:43;24.78;56.17
67868;SHT31;54672;46.096;14.470;2022-07-10T14:55:08;24.57;57.08
67868;SHT31;54672;46.096;14.470;2022-07-10T14:57:34;24.39;57.62
67868;SHT31;54672;46.096;14.470;2022-07-10T14:59:59;24.20;57.85
67868;SHT31;54672;46.096;14.470;2022-07-10T15:02:24;23.98;58.99
67868;SHT31;54672;46.096;14.470;2022-07-10T15:04:50;23.89;59.84
67868;SHT31;54672;46.096;14.470;2022-07-10T15:07:16;23.73;60.16
67868;SHT31;54672;46.096;14.470;2022-07-10T15:09:46;23.66;60.70
67868;SHT31;54672;46.096;14.470;2022-07-10T15:12:11;23.37;61.48
67868;SHT31;54672;46.096;14.470;2022-07-10T15:14:37;23.17;62.55
67868;SHT31;54672;46.096;14.470;2022-07-10T15:17:03;22.99;62.32
67868;SHT31;54672;46.096;14.470;2022-07-10T15:19:29;22.93;62.66
67868;SHT31;54672;46.096;14.470;2022-07-10T15:21:54;22.84;62.77
67868;SHT31;54672;46.096;14.470;2022-07-10T15:24:20;22.84;62.57
67868;SHT31;54672;46.096;14.470;2022-07-10T15:26:45;22.89;62.99
67868;SHT31;54672;46.096;14.470;2022-07-10T15:29:11;22.96;62.29
67868;SHT31;54672;46.096;14.470;2022-07-10T15:31:38;22.90;62.23
67868;SHT31;54672;46.096;14.470;2022-07-10T15:34:08;22.93;62.35
67868;SHT31;54672;46.096;14.470;2022-07-10T15:36:34;22.73;62.76
67868;SHT31;54672;46.096;14.470;2022-07-10T15:39:00;22.73;63.00
67868;SHT31;54672;46.096;14.470;2022-07-10T15:41:25;22.63;63.52
67868;SHT31;54672;46.096;14.470;2022-07-10T15:43:52;22.55;64.03
67868;SHT31;54672;46.096;14.470;2022-07-10T15:46:17;22.46;64.78
67868;SHT31;54672;46.096;14.470;2022-07-10T15:48:42;22.39;65.56
67868;SHT31;54672;46.096;14.470;2022-07-10T15:51:08;22.39;66.26
67868;SHT31;54672;46.096;14.470;2022-07-10T15:53:33;22.28;66.41
67868;SHT31;54672;46.096;14.470;2022-07-10T15:55:59;22.29;66.72